Time;durP1;ratioP1;P1;durP2;ratioP2;P2;SDS_P1;SDS_P2;PMS_P1;PMS_P2;Temp;Humidity;BMP_temperature;BMP_pressure;BME280_temperature;BME280_humidity;BME280_pressure;Samples;Min_cycle;Max_cycle;Signal;HPM_P1;HPM_P2
2021/11/20 00:02:18;;;;;;;2.53;2.35;;;;;;;1.66;95.52;97612.41;6342875;22;20037;-75
2021/11/20 00:04:44;;;;;;;1.73;1.63;;;;;;;1.72;95.28;97615.47;6369424;22;20026;-76
2021/11/20 00:07:11;;;;;;;2.15;1.95;;;;;;;1.71;95.50;97602.69;6368632;22;20013;-78
2021/11/20 00:09:37;;;;;;;1.90;1.80;;;;;;;1.70;95.77;97589.03;6396941;22;20018;-78
2021/11/20 00:12:09;;;;;;;2.95;2.75;;;;;;;1.71;95.42;97577.81;6343767;22;20043;-78
2021/11/20 00:14:34;;;;;;;;;;;;;;;1.71;95.75;97572.66;6345158;22;20013;-78
2021/11/20 00:17:01;;;;;;;2.58;2.47;;;;;;;1.73;95.71;97565.72;6397004;22;19914;-77
2021/11/20 00:19:29;;;;;;;1.95;1.85;;;;;;;1.71;95.48;97546.97;6368370;22;20343;-78
2021/11/20 00:21:57;;;;;;;5.22;3.13;;;;;;;1.76;95.19;97544.97;6369091;22;20014;-78
2021/11/20 00:24:41;;;;;;;4.28;3.88;;;;;;;1.77;94.98;97536.31;6368077;22;20020;-77
2021/11/20 00:27:09;;;;;;;3.15;2.95;;;;;;;1.78;95.22;97514.84;6395864;22;20024;-78
2021/11/20 00:29:47;;;;;;;1.85;1.77;;;;;;;1.81;94.98;97521.53;6315945;22;20108;-77
2021/11/20 00:32:17;;;;;;;1.10;1.10;;;;;;;1.77;95.33;97495.19;6371208;22;20515;-78
2021/11/20 00:34:43;;;;;;;2.15;2.05;;;;;;;1.82;95.14;97495.75;6316726;22;20040;-78
2021/11/20 00:37:10;;;;;;;1.48;1.48;;;;;;;1.83;95.23;97488.88;6396655;22;20453;-77
2021/11/20 00:39:38;;;;;;;1.48;1.45;;;;;;;1.82;94.96;97476.91;6368749;22;20033;-80
2021/11/20 00:42:05;;;;;;;2.67;2.58;;;;;;;1.82;95.18;97470.03;6342898;22;20020;-79
2021/11/20 00:44:31;;;;;;;2.45;2.35;;;;;;;1.80;95.29;97459.00;6396663;22;20022;-78
2021/11/20 00:46:57;;;;;;;1.25;1.25;;;;;;;1.82;94.92;97431.47;6396921;22;20060;-78
2021/11/20 00:49:25;;;;;;;2.88;2.75;;;;;;;1.82;94.92;97423.75;6396627;22;20026;-78
2021/11/20 00:51:51;;;;;;;2.72;2.55;;;;;;;1.79;95.15;97413.66;6345029;22;20045;-78
2021/11/20 00:54:17;;;;;;;1.52;1.52;;;;;;;1.77;95.46;97412.88;6400467;22;20041;-78
2021/11/20 00:56:43;;;;;;;2.78;2.58;;;;;;;1.72;95.70;97404.63;6400071;22;20014;-79
2021/11/20 00:59:10;;;;;;;1.33;1.33;;;;;;;1.70;95.32;97385.91;6371611;22;20027;-79
2021/11/20 01:01:56;;;;;;;2.20;2.10;;;;;;;1.68;95.66;97377.44;6343521;22;20049;-77
2021/11/20 01:04:25;;;;;;;2.78;1.70;;;;;;;1.67;95.89;97372.41;6341493;22;20025;-77
2021/11/20 01:06:51;;;;;;;1.67;1.67;;;;;;;1.66;95.85;97363.88;6342897;22;20014;-77
2021/11/20 01:09:25;;;;;;;2.08;1.98;;;;;;;1.68;95.51;97358.63;6316008;22;20018;-78
2021/11/20 01:11:58;;;;;;;2.47;2.28;;;;;;;1.62;95.47;97356.41;6368523;22;20128;-79
2021/11/20 01:14:25;;;;;;;2.13;2.03;;;;;;;1.61;95.88;97345.28;6317229;22;20558;-77
2021/11/20 01:16:52;;;;;;;2.20;2.05;;;;;;;1.57;95.57;97333.56;6368399;22;20096;-77
2021/11/20 01:19:19;;;;;;;1.58;1.50;;;;;;;1.57;95.60;97325.84;6315686;22;20371;-77
2021/11/20 01:22:17;;;;;;;2.80;2.60;;;;;;;1.54;95.77;97308.03;6354743;22;20017;-76
2021/11/20 01:25:02;;;;;;;3.50;3.25;;;;;;;1.51;95.74;97292.78;6372406;22;20018;-79
2021/11/20 01:27:52;;;;;;;2.58;2.45;;;;;;;1.49;96.10;97292.88;6364669;22;20025;-78
2021/11/20 01:30:38;;;;;;;1.67;1.58;;;;;;;1.45;96.21;97282.88;6395642;22;20017;-80
2021/11/20 01:33:04;;;;;;;1.45;1.45;;;;;;;1.38;96.00;97279.84;6341652;22;20018;-79
2021/11/20 01:35:32;;;;;;;2.88;2.58;;;;;;;1.32;96.55;97243.41;6367302;22;20028;-77
2021/11/20 01:38:06;;;;;;;2.38;2.17;;;;;;;1.28;96.37;97252.22;6318877;22;20052;-78
2021/11/20 01:40:35;;;;;;;2.97;2.78;;;;;;;1.27;96.58;97233.44;6341772;22;20018;-78
2021/11/20 01:43:02;;;;;;;5.55;3.72;;;;;;;1.25;96.82;97224.97;6367965;22;20022;-77
2021/11/20 01:45:32;;;;;;;2.05;1.95;;;;;;;1.25;96.74;97203.59;6367823;22;20040;-77
2021/11/20 01:48:36;;;;;;;4.03;3.60;;;;;;;1.25;96.73;97198.44;6367980;22;20018;-76
2021/11/20 01:51:09;;;;;;;3.00;2.80;;;;;;;1.30;96.72;97183.59;6341606;22;20026;-76
2021/11/20 01:53:42;;;;;;;0.98;0.98;;;;;;;1.30;96.82;97181.84;6315805;22;20410;-76
2021/11/20 01:56:15;;;;;;;2.15;2.05;;;;;;;1.31;96.72;97172.41;6367648;22;20014;-77
2021/11/20 01:59:07;;;;;;;3.70;3.40;;;;;;;1.32;96.71;97159.47;6291651;22;20013;-77
2021/11/20 02:02:09;;;;;;;2.08;1.98;;;;;;;1.37;96.70;97142.03;6307740;22;20018;-77
2021/11/20 02:05:17;;;;;;;3.15;2.95;;;;;;;1.41;96.59;97134.94;6349626;22;20468;-78
2021/11/20 02:08:03;;;;;;;2.03;1.92;;;;;;;1.41;96.62;97119.50;6312212;22;20022;-78
2021/11/20 02:10:33;;;;;;;2.17;2.00;;;;;;;1.40;96.22;97123.03;6260240;22;20018;-77
2021/11/20 02:13:03;;;;;;;3.13;2.83;;;;;;;1.39;96.13;97111.91;6336315;22;20043;-77
2021/11/20 02:15:35;;;;;;;4.22;2.40;;;;;;;1.36;96.23;97106.97;6361671;22;20417;-77
2021/11/20 02:18:01;;;;;;;2.53;2.33;;;;;;;1.32;96.05;97092.66;6284373;22;20024;-80
2021/11/20 02:20:46;;;;;;;2.28;2.17;;;;;;;1.28;96.19;97077.50;6336116;22;20018;-77
2021/11/20 02:23:32;;;;;;;3.15;1.67;;;;;;;1.24;96.38;97073.50;6335866;22;20019;-78
2021/11/20 02:26:00;;;;;;;1.10;1.10;;;;;;;1.22;96.42;97062.47;6336015;22;20014;-79
2021/11/20 02:28:36;;;;;;;2.08;1.98;;;;;;;1.22;96.27;97054.78;6335499;22;20063;-80
2021/11/20 02:31:15;;;;;;;2.85;2.42;;;;;;;1.18;96.29;97035.38;6312716;22;20049;-79
2021/11/20 02:33:41;;;;;;;1.10;1.10;;;;;;;1.18;96.51;97041.31;6284838;22;20055;-79
2021/11/20 02:36:12;;;;;;;3.80;2.55;;;;;;;1.16;96.51;97040.59;6336741;22;20015;-80
2021/11/20 02:38:40;;;;;;;2.13;1.95;;;;;;;1.16;96.41;97038.00;6310350;22;20018;-78
2021/11/20 02:41:08;;;;;;;1.98;1.88;;;;;;;1.11;96.18;97000.72;6310833;22;20089;-78
2021/11/20 02:43:39;;;;;;;1.27;1.27;;;;;;;1.12;96.44;97002.34;6337662;22;20022;-77
2021/11/20 02:46:11;;;;;;;1.85;1.75;;;;;;;1.12;96.36;96994.63;6338767;22;20014;-77
2021/11/20 02:48:38;;;;;;;1.95;1.85;;;;;;;1.11;96.41;96982.72;6337317;22;20022;-79
2021/11/20 02:51:10;;;;;;;1.15;1.15;;;;;;;1.10;96.48;96970.81;6345162;22;20187;-78
2021/11/20 02:53:38;;;;;;;1.27;1.17;;;;;;;1.10;96.40;96968.22;6355751;22;20018;-77
2021/11/20 02:56:06;;;;;;;1.50;1.50;;;;;;;1.09;96.22;96959.69;6355248;22;20034;-77
2021/11/20 02:58:34;;;;;;;1.08;1.08;;;;;;;1.04;96.57;96941.22;6323121;22;20043;-76
2021/11/20 03:01:05;;;;;;;3.05;1.98;;;;;;;0.99;96.47;96945.78;6337151;22;20093;-76
2021/11/20 03:03:32;;;;;;;1.17;1.17;;;;;;;0.97;96.50;96938.22;6335605;22;20018;-76
2021/11/20 03:05:58;;;;;;;1.48;1.45;;;;;;;0.92;96.72;96924.81;6362759;22;20520;-77
2021/11/20 03:08:25;;;;;;;0.60;0.60;;;;;;;0.86;96.73;96911.53;6335733;22;20018;-78
2021/11/20 03:10:53;;;;;;;1.58;1.48;;;;;;;0.82;96.94;96913.47;6337153;22;20014;-77
2021/11/20 03:13:19;;;;;;;0.60;0.60;;;;;;;0.76;97.16;96895.91;6363379;22;20010;-77
2021/11/20 03:15:46;;;;;;;0.73;0.73;;;;;;;0.74;97.35;96890.06;6335902;22;20105;-78
2021/11/20 03:18:13;;;;;;;0.60;0.60;;;;;;;0.76;97.58;96883.06;6362159;22;20716;-79
2021/11/20 03:20:39;;;;;;;0.57;0.57;;;;;;;0.79;97.50;96866.66;6361837;22;20014;-79
2021/11/20 03:23:17;;;;;;;0.88;0.77;;;;;;;0.82;97.77;96869.84;6310471;22;20512;-78
2021/11/20 03:25:43;;;;;;;0.50;0.50;;;;;;;0.83;97.54;96858.66;6363257;22;20060;-78
2021/11/20 03:28:10;;;;;;;0.98;0.90;;;;;;;0.81;97.34;96844.28;6285392;22;20033;-77
2021/11/20 03:30:36;;;;;;;1.10;1.10;;;;;;;0.79;97.68;96841.81;6364624;22;20018;-80
2021/11/20 03:33:02;;;;;;;1.15;1.15;;;;;;;0.80;97.61;96833.19;6337763;22;20022;-77
2021/11/20 03:35:28;;;;;;;1.42;0.98;;;;;;;0.78;97.39;96827.34;6363944;22;20014;-76
2021/11/20 03:38:00;;;;;;;1.08;1.00;;;;;;;0.76;97.69;96815.50;6365427;22;20018;-78
2021/11/20 03:40:29;;;;;;;0.40;0.40;;;;;;;0.74;97.83;96812.22;6366795;22;20018;-77
2021/11/20 03:42:55;;;;;;;0.50;0.50;;;;;;;0.66;97.89;96791.38;6313617;22;20014;-78
2021/11/20 03:45:22;;;;;;;0.65;0.65;;;;;;;0.71;98.23;96792.72;6363679;22;20357;-78
2021/11/20 03:47:50;;;;;;;0.43;0.43;;;;;;;0.68;98.22;96785.22;6363334;22;20018;-79
2021/11/20 03:50:16;;;;;;;0.50;0.50;;;;;;;0.67;98.34;96781.00;6337717;22;20014;-76
2021/11/20 03:52:43;;;;;;;0.80;0.80;;;;;;;0.67;98.32;96763.03;6364012;22;20028;-75
2021/11/20 03:55:10;;;;;;;1.42;1.42;;;;;;;0.67;98.41;96760.47;6363251;22;20014;-77
2021/11/20 03:57:36;;;;;;;0.85;0.85;;;;;;;0.68;98.52;96741.59;6337618;22;20093;-78
2021/11/20 04:00:06;;;;;;;0.60;0.60;;;;;;;0.68;98.35;96733.09;6363283;22;20096;-76
2021/11/20 04:02:41;;;;;;;0.50;0.50;;;;;;;0.66;98.51;96722.91;6363844;22;20018;-77
2021/11/20 04:05:09;;;;;;;0.63;0.63;;;;;;;0.71;98.65;96715.75;6363673;22;20513;-76
2021/11/20 04:07:37;;;;;;;0.60;0.60;;;;;;;0.72;98.49;96714.00;6337252;22;20018;-77
2021/11/20 04:10:04;;;;;;;0.50;0.50;;;;;;;0.69;98.16;96703.94;6363590;22;20021;-77
2021/11/20 04:12:30;;;;;;;0.95;0.95;;;;;;;0.63;98.26;96684.63;6311465;22;20018;-73
2021/11/20 04:14:56;;;;;;;0.60;0.60;;;;;;;0.52;98.52;96656.31;6363556;22;20014;-73
2021/11/20 04:17:23;;;;;;;1.15;1.15;;;;;;;0.65;98.85;96675.09;6363038;22;20136;-74
2021/11/20 04:19:49;;;;;;;0.68;0.68;;;;;;;0.62;98.46;96662.47;6364753;22;20020;-74
2021/11/20 04:22:15;;;;;;;0.90;0.90;;;;;;;0.65;98.61;96664.81;6363258;22;20010;-74
2021/11/20 04:24:41;;;;;;;0.80;0.80;;;;;;;0.68;98.69;96653.53;6362363;22;20346;-74
2021/11/20 04:27:16;;;;;;;1.25;1.25;;;;;;;0.66;98.53;96645.91;6362867;22;20018;-74
2021/11/20 04:30:17;;;;;;;0.98;0.70;;;;;;;0.69;98.61;96640.56;6345574;22;20523;-77
2021/11/20 04:32:44;;;;;;;0.47;0.47;;;;;;;0.64;98.75;96627.25;6337461;22;20019;-75
2021/11/20 04:35:10;;;;;;;0.50;0.50;;;;;;;0.73;98.67;96615.53;6336812;22;20496;-77
2021/11/20 04:37:37;;;;;;;0.40;0.40;;;;;;;0.68;98.55;96605.59;6363957;22;20022;-76
2021/11/20 04:40:04;;;;;;;0.50;0.50;;;;;;;0.70;98.40;96620.88;6337469;22;20395;-75
2021/11/20 04:42:30;;;;;;;0.60;0.60;;;;;;;0.71;98.50;96607.13;6362894;22;20018;-74
2021/11/20 04:44:56;;;;;;;0.63;0.63;;;;;;;0.74;98.45;96605.19;6310716;22;20173;-78
2021/11/20 04:47:22;;;;;;;0.50;0.50;;;;;;;0.74;98.16;96600.03;6364247;22;20022;-77
2021/11/20 04:49:48;;;;;;;0.75;0.75;;;;;;;0.72;98.13;96591.59;6364376;22;20023;-76
2021/11/20 04:52:14;;;;;;;0.52;0.52;;;;;;;0.69;98.33;96584.13;6336639;22;20062;-76
2021/11/20 04:54:41;;;;;;;0.45;0.45;;;;;;;0.68;98.39;96577.38;6362998;22;20019;-79
2021/11/20 04:57:07;;;;;;;0.82;0.82;;;;;;;0.70;98.52;96580.63;6364816;22;20354;-76
2021/11/20 04:59:34;;;;;;;0.50;0.50;;;;;;;0.71;98.81;96577.16;6336853;22;20013;-74
2021/11/20 05:02:01;;;;;;;0.57;0.57;;;;;;;0.72;98.57;96563.38;6336625;22;20029;-77
2021/11/20 05:04:28;;;;;;;0.80;0.80;;;;;;;0.74;98.48;96558.97;6364103;22;20369;-81
2021/11/20 05:06:54;;;;;;;0.52;0.52;;;;;;;0.71;98.41;96560.94;6322728;22;20109;-79
2021/11/20 05:09:22;;;;;;;0.63;0.63;;;;;;;0.71;98.73;96556.63;6381557;22;20022;-80
2021/11/20 05:11:53;;;;;;;0.60;0.60;;;;;;;0.74;98.76;96548.72;6344018;22;20369;-79
2021/11/20 05:14:19;;;;;;;0.57;0.57;;;;;;;0.72;98.72;96542.06;6373149;22;20493;-80
2021/11/20 05:16:47;;;;;;;0.50;0.50;;;;;;;0.71;98.71;96525.84;6343247;22;20449;-79
2021/11/20 05:19:13;;;;;;;0.50;0.50;;;;;;;0.77;98.83;96538.22;6363440;22;20780;-78
2021/11/20 05:21:43;;;;;;;0.40;0.40;;;;;;;0.79;98.66;96518.41;6363180;22;20068;-80
2021/11/20 05:24:09;;;;;;;0.60;0.60;;;;;;;0.83;98.55;96512.13;6364319;22;20018;-77
2021/11/20 05:26:36;;;;;;;0.50;0.50;;;;;;;0.80;98.80;96508.97;6362917;22;20105;-76
2021/11/20 05:29:21;;;;;;;0.40;0.40;;;;;;;0.87;98.46;96512.75;6310623;22;20030;-75
2021/11/20 05:31:53;;;;;;;0.70;0.70;;;;;;;0.82;98.21;96497.66;6342134;22;20055;-76
2021/11/20 05:34:24;;;;;;;0.40;0.40;;;;;;;0.84;98.39;96500.97;6338037;22;20027;-78
2021/11/20 05:36:50;;;;;;;0.60;0.60;;;;;;;0.84;98.42;96498.38;6337520;22;20067;-78
2021/11/20 05:39:20;;;;;;;1.05;1.05;;;;;;;0.80;98.22;96489.25;6283473;22;20044;-78
2021/11/20 05:41:46;;;;;;;2.30;0.90;;;;;;;0.78;98.65;96480.84;6361669;22;20019;-78
2021/11/20 05:44:13;;;;;;;0.70;0.70;;;;;;;0.83;98.60;96473.63;6360982;22;20026;-78
2021/11/20 05:46:59;;;;;;;0.70;0.70;;;;;;;0.77;98.57;96474.06;6362427;22;20030;-77
2021/11/20 05:49:29;;;;;;;0.50;0.50;;;;;;;0.76;98.38;96477.56;6363427;22;20374;-79
2021/11/20 05:51:56;;;;;;;1.13;1.13;;;;;;;0.76;98.59;96472.44;6335989;22;20089;-78
2021/11/20 05:54:23;;;;;;;0.90;0.90;;;;;;;0.74;98.62;96458.06;6361116;22;20018;-78
2021/11/20 05:56:56;;;;;;;0.60;0.60;;;;;;;0.78;98.54;96468.03;6286772;22;20079;-80
2021/11/20 05:59:24;;;;;;;1.13;1.13;;;;;;;0.75;98.26;96459.72;6361271;22;20022;-77
2021/11/20 06:01:50;;;;;;;0.68;0.68;;;;;;;0.77;98.51;96453.53;6362018;22;20018;-76
2021/11/20 06:04:17;;;;;;;0.82;0.82;;;;;;;0.76;98.43;96454.47;6378128;22;20017;-76
2021/11/20 06:06:43;;;;;;;0.73;0.73;;;;;;;0.76;98.58;96443.38;6366936;22;20025;-73
2021/11/20 06:09:09;;;;;;;0.70;0.70;;;;;;;0.78;98.70;96438.97;6340576;22;20468;-75
2021/11/20 06:11:36;;;;;;;0.98;0.98;;;;;;;0.81;98.74;96439.56;6339902;22;20018;-75
2021/11/20 06:14:03;;;;;;;0.57;0.57;;;;;;;0.78;98.75;96437.22;6365432;22;20700;-76
2021/11/20 06:16:33;;;;;;;;;;;;;;;0.80;98.68;96437.94;6366395;22;20024;-76
2021/11/20 06:19:01;;;;;;;0.63;0.63;;;;;;;0.80;98.68;96432.78;6366681;22;19988;-78
2021/11/20 06:21:27;;;;;;;0.93;0.93;;;;;;;0.84;98.49;96428.25;6366232;22;20044;-77
2021/11/20 06:23:54;;;;;;;0.60;0.60;;;;;;;0.87;98.26;96426.28;6367258;22;20616;-79
2021/11/20 06:26:21;;;;;;;1.15;1.15;;;;;;;0.91;98.53;96422.59;6314106;22;20018;-78
2021/11/20 06:28:47;;;;;;;0.63;0.63;;;;;;;0.88;98.76;96412.50;6314423;22;20072;-76
2021/11/20 06:31:21;;;;;;;1.45;1.45;;;;;;;0.88;98.50;96420.22;6341648;22;20024;-77
2021/11/20 06:34:00;;;;;;;0.50;0.50;;;;;;;0.88;98.62;96415.09;6366624;22;20042;-75
2021/11/20 06:36:49;;;;;;;0.75;0.75;;;;;;;0.89;98.90;96405.63;6368014;22;20014;-77
2021/11/20 06:39:39;;;;;;;0.95;0.95;;;;;;;0.90;99.03;96402.16;6347255;22;20491;-81
2021/11/20 06:42:05;;;;;;;0.82;0.82;;;;;;;0.92;99.09;96405.41;6367792;22;20090;-78
2021/11/20 06:44:33;;;;;;;0.60;0.60;;;;;;;0.95;99.05;96398.31;6294669;22;20484;-79
2021/11/20 06:46:59;;;;;;;1.30;1.30;;;;;;;0.94;99.65;96390.75;6325539;22;20043;-79
2021/11/20 06:49:26;;;;;;;3.13;2.00;;;;;;;1.00;99.43;96387.72;6299666;22;20018;-79
2021/11/20 06:51:55;;;;;;;1.88;1.77;;;;;;;1.02;99.43;96381.53;6327849;22;20074;-80
2021/11/20 06:54:40;;;;;;;6.07;1.52;;;;;;;1.08;99.41;96382.84;6376021;22;20014;-79
2021/11/20 07:00:29;;;;;;;1.67;1.58;;;;;;;1.13;99.28;96378.19;6392336;22;20022;-79
2021/11/20 07:03:17;;;;;;;1.00;1.00;;;;;;;1.14;98.85;96379.03;6320426;22;20109;-78
2021/11/20 07:05:58;;;;;;;2.42;2.33;;;;;;;1.09;98.49;96376.78;6344453;22;20025;-80
2021/11/20 07:08:25;;;;;;;1.65;1.55;;;;;;;1.09;98.47;96375.97;6342166;22;20014;-79
2021/11/20 07:10:51;;;;;;;1.52;1.52;;;;;;;1.20;98.64;96383.72;6367227;22;20018;-79
2021/11/20 07:13:19;;;;;;;2.70;2.60;;;;;;;1.25;98.48;96376.47;6395550;22;20018;-78
2021/11/20 07:15:45;;;;;;;1.52;1.52;;;;;;;1.23;98.34;96374.03;6367543;22;20105;-76
2021/11/20 07:18:12;;;;;;;2.28;2.17;;;;;;;1.23;98.32;96371.47;6315985;22;20021;-78
2021/11/20 07:20:59;;;;;;;1.33;1.33;;;;;;;1.28;98.21;96371.09;6394320;22;20020;-78
2021/11/20 07:23:45;;;;;;;0.95;0.95;;;;;;;1.28;98.57;96371.09;6371250;22;20331;-77
2021/11/20 07:26:11;;;;;;;1.55;1.48;;;;;;;1.33;98.15;96369.84;6365870;22;20082;-77
2021/11/20 07:28:37;;;;;;;1.00;1.00;;;;;;;1.35;98.13;96367.16;6343774;22;20028;-78
2021/11/20 07:31:05;;;;;;;0.50;0.50;;;;;;;1.35;97.95;96367.16;6361206;22;20017;-77
2021/11/20 07:33:34;;;;;;;0.85;0.85;;;;;;;1.40;97.97;96362.50;6390631;22;20017;-77
2021/11/20 07:36:02;;;;;;;1.40;1.40;;;;;;;1.43;98.05;96368.25;6407652;22;20040;-76
2021/11/20 07:38:34;;;;;;;7.03;1.92;;;;;;;1.50;97.83;96366.84;6375891;22;20014;-76
2021/11/20 07:41:00;;;;;;;1.27;1.27;;;;;;;1.52;97.75;96367.56;6344239;22;20013;-77
2021/11/20 07:43:27;;;;;;;1.35;1.35;;;;;;;1.60;97.54;96372.13;6313464;22;20038;-77
2021/11/20 07:46:07;;;;;;;0.70;0.70;;;;;;;1.66;97.43;96371.66;6341963;22;20028;-76
2021/11/20 07:48:35;;;;;;;1.75;1.75;;;;;;;1.67;97.19;96372.47;6314321;22;20075;-77
2021/11/20 07:51:05;;;;;;;1.17;1.17;;;;;;;1.69;96.81;96375.75;6366238;22;20014;-77
2021/11/20 07:53:40;;;;;;;2.00;1.90;;;;;;;1.81;97.05;96372.25;6364551;22;20815;-77
2021/11/20 07:56:08;;;;;;;2.55;2.45;;;;;;;1.83;96.90;96373.75;6340167;22;20022;-77
2021/11/20 07:58:35;;;;;;;2.03;1.83;;;;;;;1.87;96.89;96364.88;6367476;22;20059;-78
2021/11/20 08:01:03;;;;;;;1.15;1.15;;;;;;;1.83;96.83;96363.47;6367083;22;20110;-76
2021/11/20 08:03:31;;;;;;;1.95;1.85;;;;;;;1.81;96.59;96369.66;6341654;22;20453;-78
2021/11/20 08:06:17;;;;;;;1.10;1.10;;;;;;;1.79;96.53;96367.22;6368484;22;20017;-77
2021/11/20 08:09:04;;;;;;;1.23;1.23;;;;;;;1.87;96.84;96375.16;6369847;22;20113;-77
2021/11/20 08:11:45;;;;;;;1.30;1.20;;;;;;;1.89;96.52;96357.06;6322289;22;20013;-76
2021/11/20 08:14:12;;;;;;;2.95;2.20;;;;;;;1.98;96.68;96371.78;6316407;22;20014;-77
2021/11/20 08:16:38;;;;;;;2.33;1.40;;;;;;;1.94;96.17;96358.34;6342096;22;20051;-76
2021/11/20 08:19:12;;;;;;;1.45;1.45;;;;;;;2.11;96.59;96372.47;6317239;22;20041;-77
2021/11/20 08:22:10;;;;;;;0.70;0.70;;;;;;;2.04;96.51;96374.69;6340753;22;20037;-76
2021/11/20 08:24:38;;;;;;;2.65;2.17;;;;;;;2.16;96.79;96377.28;6340493;22;20025;-77
2021/11/20 08:27:09;;;;;;;2.20;2.10;;;;;;;2.15;96.59;96379.03;6367811;22;20094;-76
2021/11/20 08:29:46;;;;;;;1.40;1.35;;;;;;;2.28;96.77;96379.72;6294971;22;20431;-76
2021/11/20 08:32:13;;;;;;;0.70;0.70;;;;;;;2.32;96.13;96375.16;6366934;22;20018;-76
2021/11/20 08:35:06;;;;;;;0.95;0.95;;;;;;;2.45;95.78;96380.97;6369174;22;20100;-76
2021/11/20 08:37:42;;;;;;;0.50;0.50;;;;;;;2.56;95.55;96383.50;6368039;22;20022;-76
2021/11/20 08:40:25;;;;;;;0.70;0.70;;;;;;;2.54;94.73;96386.22;6368574;22;20056;-76
2021/11/20 08:42:52;;;;;;;0.60;0.60;;;;;;;2.56;94.65;96383.50;6317601;22;20013;-76
2021/11/20 08:45:20;;;;;;;0.60;0.60;;;;;;;2.56;93.97;96389.47;6344148;22;20024;-77
2021/11/20 08:47:48;;;;;;;1.17;1.17;;;;;;;2.57;94.25;96391.13;6316618;22;20018;-75
2021/11/20 08:50:24;;;;;;;0.88;0.88;;;;;;;2.56;93.96;96388.66;6340942;22;20045;-76
2021/11/20 08:52:50;;;;;;;0.90;0.90;;;;;;;2.62;94.19;96398.47;6368293;22;20039;-76
2021/11/20 08:55:16;;;;;;;0.60;0.60;;;;;;;2.56;94.48;96391.22;6368484;22;20013;-76
2021/11/20 08:57:43;;;;;;;0.68;0.68;;;;;;;2.55;94.48;96392.19;6316131;22;20017;-76
2021/11/20 09:00:33;;;;;;;0.90;0.90;;;;;;;2.57;94.31;96400.59;6294621;22;20028;-77
2021/11/20 09:03:44;;;;;;;0.80;0.80;;;;;;;2.53;94.17;96404.34;6394952;22;20102;-77
2021/11/20 09:06:32;;;;;;;0.80;0.80;;;;;;;2.53;94.78;96417.22;6395215;22;20070;-77
2021/11/20 09:09:01;;;;;;;0.50;0.50;;;;;;;2.51;94.52;96422.50;6315787;22;20047;-77
2021/11/20 09:11:36;;;;;;;0.50;0.50;;;;;;;2.48;94.53;96416.75;6367262;22;20357;-75
2021/11/20 09:14:10;;;;;;;0.50;0.50;;;;;;;2.47;94.92;96422.84;6367125;22;20025;-77
2021/11/20 09:16:47;;;;;;;0.60;0.60;;;;;;;2.42;95.05;96435.25;6317684;22;20022;-77
2021/11/20 09:19:13;;;;;;;0.50;0.50;;;;;;;2.40;94.98;96432.78;6368406;22;20021;-76
2021/11/20 09:21:39;;;;;;;2.92;1.77;;;;;;;2.39;95.09;96435.50;6315727;22;20425;-76
2021/11/20 09:24:25;;;;;;;2.83;2.45;;;;;;;2.37;95.31;96434.78;6396251;22;20017;-76
2021/11/20 09:27:11;;;;;;;0.75;0.75;;;;;;;2.36;95.32;96448.56;6395471;22;20475;-76
2021/11/20 09:29:38;;;;;;;0.82;0.82;;;;;;;2.36;94.87;96456.28;6368376;22;20017;-76
2021/11/20 09:32:04;;;;;;;2.03;1.92;;;;;;;2.31;94.46;96454.09;6368671;22;20554;-77
2021/11/20 09:34:30;;;;;;;3.78;1.73;;;;;;;2.30;94.82;96456.75;6368811;22;20018;-76
2021/11/20 09:36:57;;;;;;;3.78;3.47;;;;;;;2.26;94.45;96452.81;6346186;22;20025;-76
2021/11/20 09:39:36;;;;;;;1.95;1.85;;;;;;;2.28;94.83;96461.22;6347988;22;20014;-77
2021/11/20 09:42:15;;;;;;;1.95;1.85;;;;;;;2.27;94.06;96464.72;6317075;22;20022;-77
2021/11/20 09:44:50;;;;;;;2.15;2.05;;;;;;;2.30;94.17;96480.75;6368478;22;20464;-77
2021/11/20 09:47:20;;;;;;;2.28;2.17;;;;;;;2.34;93.69;96473.63;6368264;22;20065;-77
2021/11/20 09:49:53;;;;;;;4.78;2.67;;;;;;;2.34;93.59;96481.31;6320165;22;20558;-78
2021/11/20 09:52:20;;;;;;;2.40;2.30;;;;;;;2.31;93.75;96487.53;6374677;22;20022;-77
2021/11/20 09:54:46;;;;;;;0.82;0.82;;;;;;;2.35;93.17;96501.00;6369094;22;20018;-77
2021/11/20 09:57:14;;;;;;;2.17;2.08;;;;;;;2.36;92.01;96497.47;6395846;22;20029;-77
2021/11/20 09:59:42;;;;;;;2.17;2.08;;;;;;;2.35;92.11;96511.28;6396520;22;20048;-77
2021/11/20 10:02:12;;;;;;;3.67;3.25;;;;;;;2.33;91.49;96506.25;6342718;22;20025;-77
2021/11/20 10:05:09;;;;;;;1.83;1.33;;;;;;;2.32;91.42;96519.22;6396226;22;20104;-76
2021/11/20 10:07:39;;;;;;;1.90;1.85;;;;;;;2.31;90.87;96502.16;6396226;22;20046;-77
2021/11/20 10:10:22;;;;;;;2.58;2.38;;;;;;;2.28;91.24;96538.41;6393582;22;20097;-76
2021/11/20 10:12:53;;;;;;;;;;;;;;;2.25;91.46;96523.19;6343042;22;20017;-76
2021/11/20 10:15:24;;;;;;;2.83;2.63;;;;;;;2.20;90.76;96531.25;6367797;22;19913;-78
2021/11/20 10:18:13;;;;;;;;;;;;;;;2.22;90.96;96554.31;6369136;22;20024;-77
2021/11/20 10:21:07;;;;;;;2.67;2.58;;;;;;;2.20;91.15;96561.28;6350694;22;20302;-77
2021/11/20 10:23:36;;;;;;;1.17;1.17;;;;;;;2.19;91.74;96559.69;6390654;22;20018;-78
2021/11/20 10:26:25;;;;;;;1.30;1.30;;;;;;;2.21;91.56;96560.38;6395773;22;20789;-77
2021/11/20 10:28:59;;;;;;;1.58;1.58;;;;;;;2.19;91.26;96569.97;6344284;22;20548;-78
2021/11/20 10:31:30;;;;;;;1.00;1.00;;;;;;;2.14;91.82;96572.03;6341669;22;20014;-78
2021/11/20 10:33:58;;;;;;;;;;;;;;;2.16;90.89;96580.47;6396320;22;20096;-78
2021/11/20 10:36:31;;;;;;;2.90;2.63;;;;;;;2.12;91.15;96585.03;6368166;22;19913;-78
2021/11/20 10:39:08;;;;;;;2.20;2.10;;;;;;;2.13;90.95;96583.28;6396194;22;20059;-77
2021/11/20 10:41:41;;;;;;;1.83;1.73;;;;;;;2.08;92.06;96599.03;6367419;22;20010;-76
2021/11/20 10:44:17;;;;;;;4.43;2.33;;;;;;;2.07;92.56;96611.09;6367746;22;20013;-77
2021/11/20 10:47:07;;;;;;;2.38;2.28;;;;;;;2.07;91.26;96603.38;6395894;22;20104;-77
2021/11/20 10:49:47;;;;;;;1.92;1.83;;;;;;;2.06;91.67;96606.84;6315661;22;20022;-77
2021/11/20 10:53:05;;;;;;;2.25;2.05;;;;;;;2.04;92.19;96613.06;6395591;22;20101;-77
2021/11/20 10:55:55;;;;;;;8.13;1.95;;;;;;;1.98;92.33;96628.94;6337816;22;20668;-77
2021/11/20 10:58:27;;;;;;;0.70;0.70;;;;;;;1.94;93.24;96633.47;6309694;22;20057;-77
2021/11/20 11:01:17;;;;;;;2.13;2.03;;;;;;;1.85;93.45;96651.31;6367837;22;20056;-77
2021/11/20 11:03:55;;;;;;;2.40;2.30;;;;;;;1.81;92.57;96647.31;6367823;22;20053;-77
2021/11/20 11:06:44;;;;;;;1.48;1.48;;;;;;;1.85;92.66;96654.72;6368032;22;20022;-78
2021/11/20 11:09:17;;;;;;;2.72;1.25;;;;;;;1.86;92.47;96674.38;6394412;22;20465;-77
2021/11/20 11:11:59;;;;;;;2.13;2.03;;;;;;;1.89;91.96;96665.59;6365595;22;20026;-77
2021/11/20 11:14:41;;;;;;;1.50;1.40;;;;;;;1.97;91.57;96676.97;6318720;22;20506;-76
2021/11/20 11:17:11;;;;;;;2.17;2.08;;;;;;;2.00;91.04;96674.19;6367681;22;20019;-77
2021/11/20 11:19:52;;;;;;;1.88;1.77;;;;;;;2.04;90.52;96680.75;6395783;22;20029;-75
2021/11/20 11:22:29;;;;;;;1.58;1.55;;;;;;;2.05;90.46;96684.97;6367824;22;20025;-75
2021/11/20 11:25:23;;;;;;;1.88;1.77;;;;;;;2.06;90.22;96712.31;6368132;22;20014;-75
2021/11/20 11:28:21;;;;;;;1.55;1.55;;;;;;;2.06;89.76;96703.81;6366436;22;20025;-76
2021/11/20 11:30:50;;;;;;;1.95;1.50;;;;;;;2.05;89.78;96730.44;6315201;22;20022;-78
2021/11/20 11:33:17;;;;;;;1.52;1.52;;;;;;;2.01;90.31;96727.25;6400547;22;20053;-79
2021/11/20 11:36:11;;;;;;;1.10;1.10;;;;;;;1.98;90.37;96740.34;6341409;22;20086;-78
2021/11/20 11:39:02;;;;;;;1.48;1.45;;;;;;;1.93;90.80;96744.19;6369801;22;20021;-79
2021/11/20 11:41:33;;;;;;;0.90;0.90;;;;;;;1.91;90.98;96748.59;6366008;22;20440;-79
2021/11/20 11:44:27;;;;;;;2.15;2.05;;;;;;;1.94;91.21;96756.91;6340417;22;20096;-78
2021/11/20 11:47:36;;;;;;;1.98;1.88;;;;;;;1.93;91.61;96775.81;6368308;22;20041;-79
2021/11/20 11:50:29;;;;;;;2.13;1.17;;;;;;;1.96;91.20;96787.69;6372345;22;20017;-79
2021/11/20 11:52:58;;;;;;;2.10;2.00;;;;;;;1.97;90.78;96802.97;6316705;22;20040;-79
2021/11/20 11:55:30;;;;;;;1.60;1.48;;;;;;;2.00;90.40;96787.34;6395871;22;20021;-81
2021/11/20 11:58:07;;;;;;;4.32;1.98;;;;;;;2.01;89.61;96801.84;6396424;22;20018;-80
2021/11/20 12:00:49;;;;;;;2.17;1.77;;;;;;;2.05;88.92;96811.00;6368369;22;20079;-81
2021/11/20 12:03:35;;;;;;;;;;;;;;;2.06;89.65;96832.41;6396068;22;20014;-79
2021/11/20 12:06:18;;;;;;;2.00;1.90;;;;;;;2.01;89.85;96840.44;6367846;22;19938;-80
2021/11/20 12:08:46;;;;;;;1.60;1.50;;;;;;;2.06;89.18;96828.06;6340972;22;20716;-79
2021/11/20 12:11:24;;;;;;;0.70;0.70;;;;;;;2.10;89.20;96844.09;6368189;22;20017;-80
2021/11/20 12:14:11;;;;;;;2.10;2.00;;;;;;;2.09;88.67;96869.00;6396117;22;20017;-81
2021/11/20 12:16:52;;;;;;;8.80;3.05;;;;;;;2.02;89.88;96866.97;6351298;22;20025;-79